Terminal Aerodrome Forecast
Issued by NWS

Home | Current Version | Previous Version | Text Only | Print | Product List | Glossary On
Versions: 1 2 3 4 5 6 7 8 9 10 11 12
000
FTUS41 KLWX 191700
TAFMTN
TAF
KMTN 191723Z 1918/2018 06008KT P6SM SCT025 BKN050
     FM192000 11005KT P6SM BKN050
     FM200600 VRB03KT P6SM SCT008 BKN025
     FM201600 17007KT P6SM SCT050=

USA.gov is the U.S. government's official web portal to all federal, state and local government web resources and services.